Time;durP1;ratioP1;P1;durP2;ratioP2;P2;SDS_P1;SDS_P2;PMS_P1;PMS_P2;Temp;Humidity;BMP_temperature;BMP_pressure;BME280_temperature;BME280_humidity;BME280_pressure;Samples;Min_cycle;Max_cycle;Signal;HPM_P1;HPM_P2
2023/12/23 00:01:30;;;;;;;1.73;1.40;;;23.00;69.60;;;;;;6199462;28;88972;-67
2023/12/23 00:04:32;;;;;;;2.85;1.73;;;22.90;69.50;;;;;;6211136;28;89274;-67
2023/12/23 00:07:35;;;;;;;2.35;1.50;;;23.00;69.60;;;;;;6191301;28;89111;-67
2023/12/23 00:10:37;;;;;;;1.50;1.30;;;22.90;69.50;;;;;;6201616;28;88495;-67
2023/12/23 00:13:39;;;;;;;1.52;1.20;;;22.90;69.40;;;;;;6218696;28;87942;-67
2023/12/23 00:16:42;;;;;;;5.78;2.35;;;22.90;69.40;;;;;;6205860;28;89034;-67
2023/12/23 00:19:44;;;;;;;2.17;1.20;;;22.90;69.50;;;;;;6208637;28;89895;-67
2023/12/23 00:22:46;;;;;;;1.63;1.20;;;22.90;69.40;;;;;;6214581;28;89031;-68
2023/12/23 00:25:48;;;;;;;1.35;1.20;;;22.90;69.30;;;;;;6171622;28;88634;-67
2023/12/23 00:28:50;;;;;;;1.65;1.10;;;22.90;69.30;;;;;;6200160;28;89032;-67
2023/12/23 00:31:54;;;;;;;1.30;1.20;;;22.90;69.20;;;;;;6209573;28;89146;-67
2023/12/23 00:34:56;;;;;;;1.58;1.25;;;22.90;69.10;;;;;;6199237;28;88974;-67
2023/12/23 00:37:58;;;;;;;2.40;1.40;;;22.90;69.10;;;;;;6208282;28;87953;-67
2023/12/23 00:41:00;;;;;;;1.67;1.20;;;22.90;69.10;;;;;;6208157;28;88573;-67
2023/12/23 00:44:02;;;;;;;1.65;1.20;;;22.90;69.10;;;;;;6197970;28;89146;-67
2023/12/23 00:47:05;;;;;;;3.10;1.63;;;22.90;69.10;;;;;;6195654;28;89005;-67
2023/12/23 02:15:38;;;;;;;1.13;0.93;;;22.20;68.60;;;;;;6249619;27;82109;-68
2023/12/23 02:18:40;;;;;;;1.58;1.00;;;22.40;69.40;;;;;;6248367;27;82282;-68
2023/12/23 02:21:44;;;;;;;1.77;1.10;;;22.40;69.30;;;;;;6247703;27;82281;-68
2023/12/23 02:24:46;;;;;;;2.28;1.20;;;22.40;69.10;;;;;;6244120;27;82284;-68
2023/12/23 02:27:51;;;;;;;3.20;1.55;;;22.50;69.10;;;;;;6246588;27;82238;-68
2023/12/23 02:30:54;;;;;;;1.95;1.23;;;22.50;68.90;;;;;;6248000;27;82345;-68
2023/12/23 02:33:56;;;;;;;1.60;1.08;;;22.50;68.90;;;;;;6244501;27;82507;-68
2023/12/23 02:36:59;;;;;;;1.48;1.10;;;22.50;68.80;;;;;;6247573;27;82260;-68
2023/12/23 02:40:02;;;;;;;2.03;1.30;;;22.50;68.60;;;;;;6246952;27;82321;-68
2023/12/23 02:43:04;;;;;;;2.10;1.20;;;22.50;68.60;;;;;;6249003;27;82761;-68
2023/12/23 02:46:06;;;;;;;1.63;1.10;;;22.50;68.50;;;;;;6247086;27;82627;-69
2023/12/23 02:49:08;;;;;;;1.30;1.00;;;22.50;68.50;;;;;;6246079;27;82593;-68
2023/12/23 02:52:11;;;;;;;1.75;0.90;;;22.50;68.40;;;;;;6246790;27;81204;-68
2023/12/23 02:55:15;;;;;;;1.60;1.10;;;22.50;68.50;;;;;;6246515;27;82232;-68
2023/12/23 02:58:17;;;;;;;3.88;1.75;;;22.50;68.50;;;;;;6244366;27;81197;-68
2023/12/23 03:01:20;;;;;;;2.67;1.33;;;22.50;68.40;;;;;;6246511;27;82318;-68
2023/12/23 03:04:22;;;;;;;1.33;1.05;;;22.50;68.40;;;;;;6245052;27;81645;-68
2023/12/23 03:07:26;;;;;;;2.00;1.20;;;22.50;68.40;;;;;;6246620;27;82297;-68
2023/12/23 03:10:28;;;;;;;2.22;1.20;;;22.50;68.40;;;;;;6248568;27;81127;-68
2023/12/23 03:13:29;;;;;;;1.80;1.23;;;22.50;68.40;;;;;;6246126;27;82348;-68
2023/12/23 03:16:35;;;;;;;1.45;1.10;;;22.50;68.40;;;;;;6230514;27;82456;-68
2023/12/23 03:19:37;;;;;;;1.45;1.00;;;22.50;68.30;;;;;;6228393;28;82290;-68
2023/12/23 03:22:40;;;;;;;1.60;1.15;;;22.50;68.30;;;;;;6231394;28;82296;-68
2023/12/23 03:25:42;;;;;;;1.42;1.10;;;22.50;68.20;;;;;;6231488;28;83399;-68
2023/12/23 03:28:44;;;;;;;1.63;1.20;;;22.50;68.30;;;;;;6227916;28;82316;-69
2023/12/23 03:31:46;;;;;;;2.15;1.35;;;22.50;68.20;;;;;;6222891;28;81466;-68
2023/12/23 03:34:48;;;;;;;1.67;1.20;;;22.50;68.10;;;;;;6232537;28;82302;-68
2023/12/23 03:37:52;;;;;;;2.13;1.30;;;22.50;68.20;;;;;;6230489;28;82409;-68
2023/12/23 03:40:53;;;;;;;2.08;1.35;;;22.50;68.10;;;;;;6230149;28;82609;-68
2023/12/23 03:43:55;;;;;;;1.77;1.30;;;22.50;68.10;;;;;;6229362;28;82808;-69
2023/12/23 03:46:57;;;;;;;3.33;1.75;;;22.50;68.10;;;;;;6229338;28;82801;-68
2023/12/23 03:49:59;;;;;;;2.20;1.40;;;22.50;67.90;;;;;;6228889;28;82577;-68
2023/12/23 03:53:03;;;;;;;1.80;1.40;;;22.50;68.10;;;;;;6227447;28;81238;-68
2023/12/23 03:56:05;;;;;;;1.80;1.30;;;22.40;67.90;;;;;;6228793;28;82328;-68
2023/12/23 03:59:07;;;;;;;1.52;1.23;;;22.50;68.00;;;;;;6229193;28;82330;-68
2023/12/23 04:02:09;;;;;;;3.08;1.60;;;22.40;67.90;;;;;;6231376;28;82310;-67
2023/12/23 04:05:11;;;;;;;3.05;1.83;;;22.40;67.90;;;;;;6232770;28;82457;-68
2023/12/23 04:08:16;;;;;;;1.90;1.27;;;22.40;67.90;;;;;;6226660;28;81229;-68
2023/12/23 04:11:18;;;;;;;2.03;1.30;;;22.40;68.90;;;;;;6227370;28;82391;-68
2023/12/23 04:14:20;;;;;;;2.00;1.40;;;22.30;68.10;;;;;;6224727;28;82634;-68
2023/12/23 04:17:23;;;;;;;3.50;1.88;;;22.40;68.20;;;;;;6231481;28;82310;-67
2023/12/23 04:20:25;;;;;;;3.40;1.85;;;22.40;68.30;;;;;;6230392;28;81202;-68
2023/12/23 04:23:28;;;;;;;2.42;1.52;;;22.40;68.40;;;;;;6229434;28;82688;-68
2023/12/23 04:26:31;;;;;;;1.98;1.60;;;22.40;68.30;;;;;;6238139;28;81225;-67
2023/12/23 04:29:33;;;;;;;2.17;1.50;;;22.40;68.10;;;;;;6229621;28;82308;-67
2023/12/23 04:32:35;;;;;;;2.97;1.65;;;22.40;68.10;;;;;;6231881;28;82886;-67
2023/12/23 04:35:37;;;;;;;2.67;1.75;;;22.40;68.10;;;;;;6230557;27;82182;-67
2023/12/23 04:38:40;;;;;;;2.63;1.65;;;22.40;68.10;;;;;;6224192;28;82275;-67
2023/12/23 04:41:47;;;;;;;3.28;1.58;;;22.40;68.10;;;;;;6225745;28;81485;-68
2023/12/23 04:44:48;;;;;;;2.85;1.52;;;22.40;68.10;;;;;;6226985;28;82654;-67
2023/12/23 04:47:50;;;;;;;1.65;1.33;;;22.40;68.20;;;;;;6226487;28;82914;-67
2023/12/23 04:50:52;;;;;;;3.92;1.90;;;22.50;68.40;;;;;;6223327;28;81955;-67
2023/12/23 04:53:56;;;;;;;2.40;1.60;;;22.40;68.30;;;;;;6231747;28;81425;-67
2023/12/23 04:56:58;;;;;;;3.70;1.85;;;22.50;68.40;;;;;;6225933;28;82310;-68
2023/12/23 05:00:00;;;;;;;4.95;2.00;;;22.40;68.30;;;;;;6223225;28;82639;-67
2023/12/23 05:03:02;;;;;;;2.85;1.50;;;22.40;68.40;;;;;;6220298;28;82326;-67
2023/12/23 05:06:04;;;;;;;1.90;1.42;;;22.40;68.60;;;;;;6218629;28;82339;-67
2023/12/23 05:09:07;;;;;;;1.90;1.40;;;22.40;68.70;;;;;;6218822;28;82109;-67
2023/12/23 05:12:10;;;;;;;2.28;1.52;;;22.40;68.60;;;;;;6225647;28;82299;-67
2023/12/23 05:15:12;;;;;;;3.55;1.58;;;22.40;68.80;;;;;;6222782;28;82440;-67
2023/12/23 05:18:14;;;;;;;2.67;1.67;;;22.40;68.80;;;;;;6223230;28;82293;-67
2023/12/23 05:21:16;;;;;;;2.20;1.40;;;22.50;68.80;;;;;;6217187;28;82451;-67
2023/12/23 05:24:20;;;;;;;1.70;1.40;;;22.40;68.80;;;;;;6220621;28;82465;-67
2023/12/23 05:27:22;;;;;;;1.30;1.20;;;22.50;68.90;;;;;;6221301;28;82647;-67
2023/12/23 05:30:24;;;;;;;2.03;1.40;;;22.50;69.10;;;;;;6223613;28;84512;-67
2023/12/23 05:33:26;;;;;;;2.55;1.50;;;22.50;68.80;;;;;;6215935;28;82571;-68
2023/12/23 05:36:28;;;;;;;2.35;1.38;;;22.50;68.80;;;;;;6220935;28;82434;-68
2023/12/23 05:39:32;;;;;;;2.40;1.48;;;22.50;68.70;;;;;;6226142;28;82662;-67
2023/12/23 05:42:34;;;;;;;2.00;1.38;;;22.50;68.70;;;;;;6224565;28;82308;-67
2023/12/23 05:45:36;;;;;;;4.75;2.05;;;22.60;68.80;;;;;;6217644;28;81351;-67
2023/12/23 05:48:37;;;;;;;3.63;1.88;;;22.60;68.60;;;;;;6217849;28;82457;-68
2023/12/23 05:51:39;;;;;;;3.45;1.65;;;22.60;68.60;;;;;;6220318;28;82364;-68
2023/12/23 05:54:43;;;;;;;3.33;1.67;;;22.60;68.50;;;;;;6223686;28;81191;-67
2023/12/23 05:57:45;;;;;;;2.45;1.38;;;22.60;68.50;;;;;;6223119;28;82674;-67
2023/12/23 06:00:46;;;;;;;2.03;1.27;;;22.60;68.60;;;;;;6225673;28;82329;-67
2023/12/23 06:03:48;;;;;;;2.95;1.30;;;22.60;68.60;;;;;;6228104;28;82489;-67
2023/12/23 06:06:50;;;;;;;2.28;1.13;;;22.60;68.60;;;;;;6220488;28;82479;-67
2023/12/23 06:09:54;;;;;;;2.67;1.40;;;22.60;68.60;;;;;;6226872;28;82598;-67
2023/12/23 06:12:56;;;;;;;2.20;1.50;;;22.60;68.60;;;;;;6224074;28;81677;-67
2023/12/23 06:15:58;;;;;;;3.42;1.80;;;22.60;68.60;;;;;;6223714;28;82014;-67
2023/12/23 06:19:00;;;;;;;1.75;1.25;;;22.60;68.60;;;;;;6229675;28;81959;-67
2023/12/23 06:22:02;;;;;;;2.45;1.60;;;22.50;68.60;;;;;;6228781;28;83273;-67
2023/12/23 06:25:06;;;;;;;2.40;1.42;;;22.50;68.60;;;;;;6225307;28;82416;-67
2023/12/23 06:28:08;;;;;;;3.80;1.30;;;22.50;68.60;;;;;;6227612;28;82986;-67
2023/12/23 06:31:10;;;;;;;2.00;1.30;;;22.50;68.60;;;;;;6226623;28;81994;-67
2023/12/23 06:34:12;;;;;;;1.45;1.13;;;22.50;68.70;;;;;;6230000;28;81188;-67
2023/12/23 06:37:14;;;;;;;2.80;1.60;;;22.50;68.60;;;;;;6226074;28;82730;-67
2023/12/23 06:40:17;;;;;;;1.73;1.20;;;22.50;68.80;;;;;;6227841;28;81220;-67
2023/12/23 06:43:19;;;;;;;1.40;1.20;;;22.40;68.70;;;;;;6227125;28;81210;-67
2023/12/23 06:46:21;;;;;;;2.05;1.30;;;22.50;68.90;;;;;;6228305;28;82314;-67
2023/12/23 06:49:24;;;;;;;3.63;1.77;;;22.40;68.80;;;;;;6224210;28;82397;-67
2023/12/23 06:52:26;;;;;;;2.47;1.40;;;22.40;68.90;;;;;;6233824;28;81508;-67
2023/12/23 06:55:29;;;;;;;2.92;1.60;;;22.40;68.90;;;;;;6231803;28;81317;-67
2023/12/23 06:58:31;;;;;;;1.77;1.23;;;22.40;68.90;;;;;;6230293;28;82741;-67
2023/12/23 07:01:38;;;;;;;2.22;1.33;;;22.40;68.90;;;;;;6232168;28;82277;-67
2023/12/23 07:04:40;;;;;;;2.40;1.23;;;22.40;69.00;;;;;;6228891;28;82255;-67
2023/12/23 07:07:42;;;;;;;3.08;1.52;;;22.30;69.00;;;;;;6228424;28;81430;-67
2023/12/23 07:10:45;;;;;;;3.05;1.50;;;22.30;68.90;;;;;;6232118;28;81061;-67
2023/12/23 07:13:47;;;;;;;3.15;1.27;;;22.30;69.10;;;;;;6228914;28;82755;-67
2023/12/23 07:16:49;;;;;;;1.98;1.30;;;22.30;69.10;;;;;;6230693;28;82358;-67
2023/12/23 07:19:51;;;;;;;2.47;1.45;;;22.30;69.20;;;;;;6225967;28;84056;-67
2023/12/23 07:22:53;;;;;;;2.70;1.63;;;22.30;69.30;;;;;;6226438;28;83403;-68
2023/12/23 07:25:57;;;;;;;4.93;1.40;;;22.30;69.20;;;;;;6222523;28;84214;-67
2023/12/23 07:28:59;;;;;;;2.60;1.50;;;22.30;69.30;;;;;;6226741;28;84039;-67
2023/12/23 07:32:01;;;;;;;2.35;1.40;;;22.30;69.30;;;;;;6223240;28;84945;-67
2023/12/23 07:35:03;;;;;;;2.70;1.35;;;22.30;69.30;;;;;;6220406;28;84817;-67
2023/12/23 07:38:05;;;;;;;2.38;1.40;;;22.20;69.30;;;;;;6229211;28;84054;-67
2023/12/23 07:41:11;;;;;;;1.70;1.25;;;22.30;69.40;;;;;;6227695;28;85028;-67
2023/12/23 07:44:13;;;;;;;3.28;1.75;;;22.30;69.40;;;;;;6227020;28;84051;-67
2023/12/23 07:47:15;;;;;;;2.35;1.42;;;22.20;69.30;;;;;;6227438;28;84367;-67
2023/12/23 07:50:17;;;;;;;2.80;1.42;;;22.20;69.30;;;;;;6225107;28;84331;-67
2023/12/23 07:53:19;;;;;;;1.75;1.38;;;22.20;69.30;;;;;;6226250;28;83283;-67
2023/12/23 07:56:24;;;;;;;1.73;1.40;;;22.20;69.40;;;;;;6226510;28;84179;-67
2023/12/23 07:59:26;;;;;;;2.35;1.42;;;22.20;69.50;;;;;;6230741;28;84087;-67
2023/12/23 08:02:28;;;;;;;2.60;1.58;;;22.20;69.60;;;;;;6227321;28;85781;-67
2023/12/23 08:05:34;;;;;;;1.95;1.50;;;22.20;69.50;;;;;;6228191;28;82884;-67
2023/12/23 08:08:36;;;;;;;2.03;1.40;;;22.20;69.60;;;;;;6227734;28;84421;-67
2023/12/23 08:11:39;;;;;;;3.13;1.60;;;22.10;69.50;;;;;;6230115;28;84006;-67
2023/12/23 08:14:41;;;;;;;2.10;1.45;;;22.10;69.60;;;;;;6223994;28;84207;-67
2023/12/23 08:17:44;;;;;;;3.20;1.80;;;22.10;69.50;;;;;;6227768;28;84181;-67
2023/12/23 08:20:46;;;;;;;3.97;2.15;;;22.10;69.40;;;;;;6227253;28;84028;-67
2023/12/23 08:23:48;;;;;;;2.20;1.50;;;22.10;69.30;;;;;;6228186;28;83299;-68
2023/12/23 08:26:51;;;;;;;1.83;1.33;;;22.10;69.30;;;;;;6228243;28;83948;-67
2023/12/23 08:29:53;;;;;;;1.98;1.38;;;22.20;69.30;;;;;;6227161;28;84074;-67
2023/12/23 08:32:55;;;;;;;3.50;1.42;;;22.10;69.10;;;;;;6228872;28;84957;-67
2023/12/23 08:35:58;;;;;;;2.75;1.58;;;22.20;69.30;;;;;;6228761;28;84180;-67
2023/12/23 08:38:59;;;;;;;2.53;1.40;;;22.10;69.20;;;;;;6229746;28;84185;-67
2023/12/23 08:42:03;;;;;;;1.85;1.33;;;22.20;69.20;;;;;;6226361;28;84058;-67
2023/12/23 08:45:06;;;;;;;2.15;1.42;;;22.20;69.10;;;;;;6222261;28;84453;-67
2023/12/23 08:48:08;;;;;;;1.92;1.40;;;22.20;69.10;;;;;;6219147;28;84255;-67
2023/12/23 08:51:10;;;;;;;2.30;1.50;;;22.20;69.10;;;;;;6225444;28;84135;-67
2023/12/23 08:54:12;;;;;;;2.92;1.60;;;22.20;69.00;;;;;;6230436;28;83709;-67
2023/12/23 08:57:16;;;;;;;2.03;1.25;;;22.20;69.00;;;;;;6228005;28;83530;-67
2023/12/23 09:00:18;;;;;;;1.27;1.10;;;22.20;68.90;;;;;;6230585;28;84149;-67
2023/12/23 09:03:20;;;;;;;1.40;1.10;;;22.30;68.90;;;;;;6228891;28;84907;-67
2023/12/23 09:06:22;;;;;;;2.55;1.30;;;22.30;68.80;;;;;;6229253;28;84293;-68
2023/12/23 09:09:24;;;;;;;1.88;1.20;;;22.30;68.80;;;;;;6229144;28;83998;-67
2023/12/23 09:12:27;;;;;;;1.95;1.30;;;22.40;68.80;;;;;;6220719;28;84310;-68
2023/12/23 09:15:29;;;;;;;2.22;1.50;;;22.40;68.70;;;;;;6226303;28;84077;-67
2023/12/23 09:18:31;;;;;;;1.90;1.38;;;22.40;68.80;;;;;;6228114;28;84170;-67
2023/12/23 09:21:33;;;;;;;1.38;1.10;;;22.40;68.70;;;;;;6218953;28;84108;-68
2023/12/23 09:24:36;;;;;;;1.50;1.20;;;22.40;68.60;;;;;;6225134;28;83272;-67
2023/12/23 09:27:39;;;;;;;1.13;1.02;;;22.40;68.60;;;;;;6226568;28;84301;-67
2023/12/23 09:30:41;;;;;;;2.80;1.40;;;22.50;68.60;;;;;;6222585;28;84024;-67
2023/12/23 09:33:43;;;;;;;2.10;1.30;;;22.50;68.60;;;;;;6226257;28;85282;-67
2023/12/23 09:36:45;;;;;;;2.58;1.40;;;22.50;68.60;;;;;;6227263;28;83947;-67
2023/12/23 09:39:47;;;;;;;1.83;1.15;;;22.50;68.60;;;;;;6228452;28;82974;-67
2023/12/23 09:42:51;;;;;;;1.70;1.30;;;22.50;68.60;;;;;;6227892;28;82932;-67
2023/12/23 09:45:56;;;;;;;1.42;1.10;;;22.50;68.60;;;;;;6225797;28;84499;-67
2023/12/23 09:48:58;;;;;;;1.30;1.10;;;22.50;68.60;;;;;;6227018;28;84227;-67
2023/12/23 09:52:01;;;;;;;1.65;1.10;;;22.50;68.60;;;;;;6223964;28;84016;-67
2023/12/23 09:55:03;;;;;;;2.13;1.23;;;22.50;68.70;;;;;;6227332;28;83650;-67
2023/12/23 09:58:07;;;;;;;1.45;1.05;;;22.50;68.60;;;;;;6226497;28;82934;-67
2023/12/23 10:01:10;;;;;;;1.23;0.90;;;22.60;68.80;;;;;;6227187;28;84097;-67
2023/12/23 10:04:12;;;;;;;3.53;1.60;;;22.60;68.70;;;;;;6226656;28;84967;-67
2023/12/23 10:07:15;;;;;;;1.85;1.17;;;22.50;68.60;;;;;;6229078;28;82898;-67
2023/12/23 10:10:18;;;;;;;2.75;1.38;;;22.60;68.70;;;;;;6226118;28;84045;-67
2023/12/23 10:13:22;;;;;;;1.67;1.25;;;22.60;68.70;;;;;;6227726;28;84130;-67
2023/12/23 10:16:24;;;;;;;1.27;0.95;;;22.60;68.60;;;;;;6221304;28;84055;-67
2023/12/23 10:19:26;;;;;;;1.23;1.00;;;22.60;68.70;;;;;;6222943;28;84058;-68
2023/12/23 10:22:28;;;;;;;1.98;0.95;;;22.60;68.70;;;;;;6213223;28;84108;-67
2023/12/23 10:25:30;;;;;;;1.55;1.10;;;22.60;68.70;;;;;;6229097;28;83207;-67
2023/12/23 10:28:36;;;;;;;1.88;1.10;;;22.60;68.70;;;;;;6214655;28;82823;-68
2023/12/23 10:31:38;;;;;;;1.17;1.00;;;22.60;68.70;;;;;;6226241;28;82633;-67
2023/12/23 10:34:44;;;;;;;1.10;1.00;;;22.60;68.70;;;;;;6233987;28;85067;-67
2023/12/23 10:37:47;;;;;;;1.20;0.98;;;22.60;68.70;;;;;;6222032;28;84291;-67
2023/12/23 10:40:54;;;;;;;1.50;1.00;;;22.60;68.60;;;;;;6233167;28;84096;-67
2023/12/23 10:43:59;;;;;;;1.58;1.10;;;22.60;68.60;;;;;;6229782;28;84111;-67
2023/12/23 10:47:02;;;;;;;1.40;1.10;;;22.60;69.50;;;;;;6215996;28;84148;-67
2023/12/23 10:50:05;;;;;;;1.23;0.90;;;22.60;68.70;;;;;;6235666;28;84035;-67
2023/12/23 10:53:12;;;;;;;2.42;1.23;;;22.60;68.70;;;;;;6234586;28;83989;-67
2023/12/23 10:56:16;;;;;;;2.42;1.38;;;22.60;68.70;;;;;;6226645;28;83379;-68
2023/12/23 10:59:21;;;;;;;1.55;1.00;;;22.60;68.70;;;;;;6233618;28;84042;-67
2023/12/23 11:02:28;;;;;;;0.80;0.80;;;22.60;68.60;;;;;;6212274;28;84806;-68
2023/12/23 11:05:31;;;;;;;0.98;0.88;;;22.70;68.60;;;;;;6212398;28;85232;-67
2023/12/23 11:08:34;;;;;;;2.55;1.30;;;22.60;68.60;;;;;;6230799;28;84022;-67
2023/12/23 11:11:37;;;;;;;1.00;0.85;;;22.70;68.60;;;;;;6212511;28;83179;-67
2023/12/23 11:14:41;;;;;;;1.20;1.00;;;22.70;68.60;;;;;;6225647;28;82907;-68
2023/12/23 11:17:44;;;;;;;1.70;1.00;;;22.70;68.60;;;;;;6224566;28;84046;-67
2023/12/23 11:20:49;;;;;;;1.70;1.10;;;22.60;68.60;;;;;;6230298;28;84536;-68
2023/12/23 11:23:52;;;;;;;1.17;0.80;;;22.70;68.60;;;;;;6224354;28;84007;-67
2023/12/23 11:26:54;;;;;;;1.55;1.00;;;22.70;68.70;;;;;;6220112;28;83580;-68
2023/12/23 11:29:59;;;;;;;0.80;0.80;;;22.70;68.60;;;;;;6218818;28;84346;-67
2023/12/23 11:33:05;;;;;;;0.80;0.80;;;22.70;68.60;;;;;;6225060;28;84101;-67
2023/12/23 11:36:07;;;;;;;0.75;0.70;;;22.70;68.60;;;;;;6214416;28;84126;-67
2023/12/23 11:39:12;;;;;;;0.80;0.73;;;22.70;68.60;;;;;;6224733;28;84329;-67
2023/12/23 11:42:14;;;;;;;0.93;0.80;;;22.70;68.60;;;;;;6228172;28;84083;-67
2023/12/23 11:45:18;;;;;;;1.02;0.70;;;22.70;68.60;;;;;;6213731;28;84407;-67
2023/12/23 11:48:21;;;;;;;3.42;1.20;;;22.70;68.70;;;;;;6225423;28;84040;-68
2023/12/23 11:51:24;;;;;;;2.38;1.05;;;22.70;68.80;;;;;;6223058;28;83867;-67
2023/12/23 11:54:26;;;;;;;1.17;0.80;;;22.70;68.90;;;;;;6215223;28;84232;-67
2023/12/23 11:57:28;;;;;;;2.65;1.20;;;22.70;68.90;;;;;;6227466;28;83244;-68
2023/12/23 12:00:36;;;;;;;1.95;1.05;;;22.70;68.80;;;;;;6220956;28;84101;-68
2023/12/23 12:03:38;;;;;;;1.90;1.10;;;22.80;68.80;;;;;;6216363;28;84143;-68
2023/12/23 12:06:40;;;;;;;2.95;1.40;;;22.70;68.80;;;;;;6224086;28;85007;-67
2023/12/23 12:09:43;;;;;;;2.05;1.30;;;22.80;68.90;;;;;;6211793;28;83979;-67
2023/12/23 12:12:44;;;;;;;1.10;1.00;;;22.80;68.90;;;;;;6224255;28;84004;-68
2023/12/23 12:15:48;;;;;;;1.65;1.20;;;22.70;68.90;;;;;;6229733;28;83560;-68
2023/12/23 12:18:50;;;;;;;3.30;1.25;;;22.80;68.90;;;;;;6220743;28;84337;-67
2023/12/23 12:21:52;;;;;;;1.38;1.10;;;22.80;69.00;;;;;;6223468;28;84359;-68
2023/12/23 12:24:54;;;;;;;2.10;1.33;;;22.80;69.20;;;;;;6210052;28;84433;-67
2023/12/23 12:27:57;;;;;;;2.25;1.30;;;22.80;69.30;;;;;;6223593;28;83353;-67
2023/12/23 12:31:10;;;;;;;3.08;1.70;;;22.80;69.40;;;;;;6222975;28;84144;-67
2023/12/23 12:34:13;;;;;;;6.05;1.50;;;22.80;69.80;;;;;;6222546;28;84146;-67
2023/12/23 12:37:15;;;;;;;5.53;1.83;;;22.80;70.10;;;;;;6229514;28;85072;-68
2023/12/23 12:40:17;;;;;;;7.30;2.00;;;22.80;70.50;;;;;;6223662;28;83760;-68
2023/12/23 12:43:22;;;;;;;7.97;2.47;;;22.80;70.80;;;;;;6227780;28;84031;-69
2023/12/23 12:46:25;;;;;;;4.90;1.75;;;22.80;70.70;;;;;;6219738;28;84333;-68
2023/12/23 12:49:27;;;;;;;5.80;2.20;;;22.80;70.80;;;;;;6216258;28;84124;-68
2023/12/23 12:52:30;;;;;;;4.72;1.98;;;22.80;70.80;;;;;;6223526;28;84053;-68
2023/12/23 12:55:32;;;;;;;5.75;2.45;;;22.80;71.10;;;;;;6215371;28;84257;-68
2023/12/23 12:58:34;;;;;;;13.13;3.70;;;22.90;71.20;;;;;;6218706;28;82219;-68
2023/12/23 13:01:37;;;;;;;11.75;3.53;;;22.90;70.40;;;;;;6226130;28;84369;-68
2023/12/23 13:04:39;;;;;;;10.18;2.97;;;22.90;70.50;;;;;;6222341;28;84086;-69
2023/12/23 13:07:41;;;;;;;12.00;3.35;;;22.90;70.50;;;;;;6212871;28;85246;-68
2023/12/23 13:10:43;;;;;;;12.10;3.50;;;22.90;70.50;;;;;;6231208;28;83378;-68
2023/12/23 13:13:45;;;;;;;11.05;3.45;;;22.90;70.50;;;;;;6220324;28;84756;-68
2023/12/23 13:16:48;;;;;;;7.00;2.67;;;22.90;70.50;;;;;;6235063;28;83870;-68
2023/12/23 13:19:50;;;;;;;8.90;2.88;;;22.90;70.40;;;;;;6217462;28;84318;-68
2023/12/23 13:22:52;;;;;;;9.05;2.90;;;22.90;70.40;;;;;;6217929;28;82969;-68
2023/12/23 13:25:54;;;;;;;5.78;2.88;;;23.00;70.40;;;;;;6217985;28;84076;-68
2023/12/23 13:28:56;;;;;;;8.18;2.58;;;23.00;70.30;;;;;;6232408;28;83683;-68
2023/12/23 13:31:59;;;;;;;9.35;3.03;;;22.90;70.30;;;;;;6218630;28;84141;-68
2023/12/23 13:35:02;;;;;;;7.47;2.55;;;23.00;70.20;;;;;;6210008;28;84040;-68
2023/12/23 13:38:05;;;;;;;5.05;2.35;;;23.00;70.10;;;;;;6231789;28;85037;-66
2023/12/23 13:41:08;;;;;;;8.23;2.72;;;23.00;70.10;;;;;;6213576;28;84014;-66
2023/12/23 13:44:10;;;;;;;7.35;2.70;;;22.90;70.00;;;;;;6217404;28;84127;-66
2023/12/23 13:47:14;;;;;;;7.78;2.47;;;23.00;70.00;;;;;;6223160;28;83308;-66
2023/12/23 13:50:16;;;;;;;8.65;2.60;;;23.00;70.00;;;;;;6219826;28;84071;-66
2023/12/23 13:53:18;;;;;;;5.55;2.42;;;23.00;69.90;;;;;;6220955;28;83153;-66
2023/12/23 13:56:20;;;;;;;5.32;2.42;;;23.00;69.80;;;;;;6208540;28;84028;-66
2023/12/23 13:59:22;;;;;;;5.20;2.28;;;23.00;69.80;;;;;;6217869;28;83286;-66
2023/12/23 14:02:26;;;;;;;6.57;2.95;;;23.00;69.80;;;;;;6208467;28;84109;-66
2023/12/23 14:05:28;;;;;;;4.40;2.33;;;23.00;69.70;;;;;;6222624;28;84083;-66
2023/12/23 14:08:30;;;;;;;4.43;2.33;;;23.00;69.60;;;;;;6221763;28;83769;-66
2023/12/23 14:11:32;;;;;;;5.60;2.40;;;23.00;69.60;;;;;;6217867;28;84040;-68
2023/12/23 14:14:34;;;;;;;4.80;2.10;;;23.00;69.50;;;;;;6211640;28;84556;-68
2023/12/23 14:17:37;;;;;;;3.60;1.90;;;23.00;69.60;;;;;;6212115;28;84360;-68
2023/12/23 14:20:39;;;;;;;5.15;2.78;;;23.10;69.50;;;;;;6216126;28;84020;-68
2023/12/23 14:23:41;;;;;;;5.72;2.15;;;23.00;69.40;;;;;;6231910;28;84089;-68
2023/12/23 14:26:43;;;;;;;4.00;2.35;;;23.10;69.40;;;;;;6232341;28;84079;-68
2023/12/23 14:29:48;;;;;;;2.70;1.90;;;23.10;69.40;;;;;;6224239;28;82167;-68
2023/12/23 14:32:51;;;;;;;2.45;1.95;;;23.10;69.30;;;;;;6208469;28;82997;-68
2023/12/23 14:35:53;;;;;;;4.78;2.28;;;23.10;69.30;;;;;;6215257;28;84035;-68
2023/12/23 14:38:55;;;;;;;2.97;1.85;;;23.00;69.20;;;;;;6223536;28;84854;-68
2023/12/23 14:41:57;;;;;;;5.32;2.53;;;23.10;69.20;;;;;;6209976;28;84469;-68
2023/12/23 14:44:59;;;;;;;5.05;2.13;;;23.10;69.10;;;;;;6230872;28;84625;-68
2023/12/23 14:48:03;;;;;;;5.97;2.50;;;23.10;69.10;;;;;;6221504;28;84368;-68
2023/12/23 14:51:05;;;;;;;3.60;2.17;;;23.10;69.00;;;;;;6218909;28;84076;-68
2023/12/23 14:54:07;;;;;;;3.80;1.83;;;23.10;69.00;;;;;;6222818;28;83016;-68
2023/12/23 14:57:09;;;;;;;3.22;1.80;;;23.10;68.90;;;;;;6208766;28;84228;-68
2023/12/23 15:00:12;;;;;;;2.72;2.10;;;23.10;68.90;;;;;;6218993;28;83449;-68
2023/12/23 15:03:15;;;;;;;2.65;1.73;;;23.10;68.80;;;;;;6226136;28;84528;-68
2023/12/23 15:06:17;;;;;;;2.42;1.77;;;23.10;68.80;;;;;;6208471;28;84123;-68
2023/12/23 15:09:19;;;;;;;4.53;2.30;;;23.10;68.70;;;;;;6206793;28;85039;-68
2023/12/23 15:12:21;;;;;;;2.50;1.70;;;23.10;68.70;;;;;;6211705;28;84498;-69
2023/12/23 15:15:24;;;;;;;3.42;1.85;;;23.10;68.60;;;;;;6215589;28;84636;-69
2023/12/23 15:18:27;;;;;;;3.13;2.00;;;23.10;68.60;;;;;;6229662;28;85768;-69
2023/12/23 15:21:29;;;;;;;2.25;1.60;;;23.10;68.60;;;;;;6222638;28;84058;-68
2023/12/23 15:24:32;;;;;;;2.90;1.60;;;23.20;68.50;;;;;;6222465;28;84110;-69
2023/12/23 15:27:34;;;;;;;2.08;1.70;;;23.10;68.40;;;;;;6217068;28;83996;-69
2023/12/23 15:30:36;;;;;;;2.72;1.50;;;23.20;68.50;;;;;;6229290;28;83524;-68
2023/12/23 15:33:40;;;;;;;2.78;1.73;;;23.10;68.40;;;;;;6234717;28;84084;-68
2023/12/23 15:36:42;;;;;;;2.95;1.88;;;23.10;68.30;;;;;;6212392;28;84092;-68
2023/12/23 15:39:44;;;;;;;3.28;1.70;;;23.10;68.30;;;;;;6236220;28;84180;-68
2023/12/23 15:42:45;;;;;;;2.53;1.70;;;23.10;68.30;;;;;;6222033;28;83950;-69
2023/12/23 15:45:47;;;;;;;2.58;1.67;;;23.10;68.30;;;;;;6227416;28;84097;-68
2023/12/23 15:48:51;;;;;;;2.20;1.45;;;23.20;68.30;;;;;;6212497;28;84010;-68
2023/12/23 15:51:53;;;;;;;1.75;1.40;;;23.10;68.20;;;;;;6215032;28;84096;-66
2023/12/23 15:54:56;;;;;;;2.25;1.70;;;23.20;68.30;;;;;;6234872;28;84584;-66
2023/12/23 15:57:58;;;;;;;2.65;1.45;;;23.20;68.30;;;;;;6232700;28;83957;-66
2023/12/23 16:01:00;;;;;;;2.42;1.58;;;23.20;68.30;;;;;;6223759;28;82507;-66
2023/12/23 16:04:03;;;;;;;3.45;1.98;;;23.20;68.10;;;;;;6224964;28;84074;-67
2023/12/23 16:07:05;;;;;;;1.70;1.30;;;23.20;68.20;;;;;;6211592;28;83161;-66
2023/12/23 16:10:08;;;;;;;1.55;1.30;;;23.20;68.10;;;;;;6221740;28;87123;-67
2023/12/23 16:13:10;;;;;;;1.85;1.23;;;23.20;68.10;;;;;;6225327;28;84006;-66
2023/12/23 16:16:12;;;;;;;1.65;1.13;;;23.20;68.10;;;;;;6218215;28;83695;-66
2023/12/23 16:19:16;;;;;;;2.45;1.55;;;23.20;68.00;;;;;;6220762;28;84487;-66
2023/12/23 16:22:18;;;;;;;1.73;1.33;;;23.20;67.90;;;;;;6222475;28;84037;-67
2023/12/23 16:25:20;;;;;;;2.00;1.20;;;23.20;67.90;;;;;;6212202;28;84220;-66
2023/12/23 16:28:22;;;;;;;1.83;1.20;;;23.20;67.90;;;;;;6210795;28;84084;-67
2023/12/23 16:31:24;;;;;;;1.58;1.30;;;23.20;67.90;;;;;;6219463;28;83629;-66
2023/12/23 16:34:27;;;;;;;1.80;1.23;;;23.20;67.90;;;;;;6215976;28;84083;-66
2023/12/23 16:37:29;;;;;;;2.47;1.50;;;23.20;67.90;;;;;;6224350;28;84090;-66
2023/12/23 16:40:32;;;;;;;1.98;1.48;;;23.20;67.80;;;;;;6212476;28;85184;-66
2023/12/23 16:43:34;;;;;;;1.52;1.10;;;23.20;68.70;;;;;;6231987;28;82963;-66
2023/12/23 16:46:35;;;;;;;1.92;1.30;;;23.20;67.80;;;;;;6223688;28;84129;-66
2023/12/23 16:49:39;;;;;;;1.58;1.17;;;23.20;67.70;;;;;;6212642;28;83987;-68
2023/12/23 16:52:41;;;;;;;2.08;1.23;;;23.20;67.70;;;;;;6220411;28;82883;-68
2023/12/23 16:55:43;;;;;;;3.25;1.67;;;23.20;67.70;;;;;;6221484;28;84004;-68
2023/12/23 16:58:45;;;;;;;1.55;1.13;;;23.20;67.70;;;;;;6224927;28;84037;-68
2023/12/23 17:01:47;;;;;;;1.20;1.10;;;23.20;67.70;;;;;;6210895;28;83667;-68
2023/12/23 17:04:50;;;;;;;1.33;1.05;;;23.20;67.60;;;;;;6221479;28;84024;-68
2023/12/23 17:07:52;;;;;;;2.28;1.10;;;23.20;67.60;;;;;;6230064;28;83999;-68
2023/12/23 17:10:54;;;;;;;1.33;1.00;;;23.20;67.60;;;;;;6231931;28;85080;-68
2023/12/23 17:13:56;;;;;;;2.65;1.55;;;23.30;67.70;;;;;;6216275;28;84311;-68